createdAt,value
2022-12-17T00:02:34.626Z,99.90
2022-12-17T00:05:20.187Z,99.90
2022-12-17T00:08:05.216Z,99.90
2022-12-17T00:10:50.535Z,99.90
2022-12-17T00:13:37.092Z,99.90
2022-12-17T00:16:23.015Z,99.90
2022-12-17T00:19:08.811Z,99.90
2022-12-17T00:21:56.388Z,99.90
2022-12-17T00:24:42.743Z,99.90
2022-12-17T00:27:28.090Z,99.90
2022-12-17T00:30:15.041Z,99.90
2022-12-17T00:33:00.547Z,99.90
2022-12-17T00:35:46.127Z,99.90
2022-12-17T00:38:37.728Z,99.90
2022-12-17T00:41:23.184Z,99.90
2022-12-17T00:44:08.612Z,99.90
2022-12-17T00:46:54.627Z,99.90
2022-12-17T00:49:41.281Z,99.90
2022-12-17T00:52:26.813Z,99.90
2022-12-17T00:55:12.362Z,99.90
2022-12-17T00:57:58.323Z,99.90
2022-12-17T01:00:43.903Z,99.90
2022-12-17T01:03:29.956Z,99.90
2022-12-17T01:06:15.892Z,99.90
2022-12-17T01:09:01.301Z,99.90
2022-12-17T01:11:46.744Z,99.90
2022-12-17T01:14:31.904Z,99.90
2022-12-17T01:17:17.435Z,99.90
2022-12-17T01:20:02.990Z,99.90
2022-12-17T01:22:48.283Z,99.90
2022-12-17T01:25:33.814Z,99.90
2022-12-17T01:28:19.303Z,99.90
2022-12-17T01:31:06.905Z,99.90
2022-12-17T01:33:52.424Z,99.90
2022-12-17T01:36:38.084Z,99.90
2022-12-17T01:39:23.906Z,99.90
2022-12-17T01:42:09.369Z,99.90
2022-12-17T01:44:57.527Z,99.90
2022-12-17T01:47:47.656Z,99.90
2022-12-17T01:50:34.790Z,99.90
2022-12-17T01:53:21.403Z,99.90
2022-12-17T01:56:07.508Z,99.90
2022-12-17T01:58:54.614Z,99.90
2022-12-17T02:01:40.337Z,99.90
2022-12-17T02:04:27.182Z,99.90
2022-12-17T02:07:35.555Z,99.90
2022-12-17T02:10:30.178Z,99.90
2022-12-17T02:13:18.369Z,99.90
2022-12-17T02:16:09.062Z,99.90
2022-12-17T02:19:08.396Z,99.90
2022-12-17T02:21:53.948Z,99.90
2022-12-17T02:24:49.906Z,99.90
2022-12-17T02:27:41.662Z,99.90
2022-12-17T02:30:28.302Z,99.90
2022-12-17T02:33:13.885Z,99.90
2022-12-17T02:36:16.856Z,99.90
2022-12-17T02:39:02.388Z,99.90
2022-12-17T02:41:48.966Z,99.90
2022-12-17T02:44:38.169Z,99.90
2022-12-17T02:47:26.466Z,99.90
2022-12-17T02:50:12.509Z,99.90
2022-12-17T02:52:59.139Z,99.90
2022-12-17T02:55:45.576Z,99.90
2022-12-17T02:58:32.091Z,99.90
2022-12-17T03:01:19.481Z,99.90
2022-12-17T03:04:04.900Z,99.90
2022-12-17T03:06:50.382Z,99.90
2022-12-17T03:09:36.003Z,99.90
2022-12-17T03:12:21.752Z,99.90
2022-12-17T03:15:07.216Z,99.90
2022-12-17T03:17:52.754Z,99.90
2022-12-17T03:20:38.174Z,99.90
2022-12-17T03:23:24.503Z,99.90
2022-12-17T03:26:09.996Z,99.90
2022-12-17T03:28:55.443Z,99.90
2022-12-17T03:31:45.172Z,99.90
2022-12-17T03:34:30.349Z,99.90
2022-12-17T03:37:15.859Z,99.90
2022-12-17T03:40:01.066Z,99.90
2022-12-17T03:42:46.628Z,99.90
2022-12-17T03:45:31.972Z,99.90
2022-12-17T03:48:27.801Z,99.90
2022-12-17T03:51:13.428Z,99.90
2022-12-17T03:53:59.015Z,99.90
2022-12-17T03:56:44.395Z,99.90
2022-12-17T03:59:30.041Z,99.90
2022-12-17T04:02:15.964Z,99.90
2022-12-17T04:05:01.554Z,99.90
2022-12-17T04:07:48.526Z,99.90
2022-12-17T04:10:33.684Z,99.90
2022-12-17T04:13:18.886Z,99.90
2022-12-17T04:16:04.350Z,99.90
2022-12-17T04:18:49.735Z,99.90
2022-12-17T04:21:34.915Z,99.90
2022-12-17T04:24:20.361Z,99.90
2022-12-17T04:27:05.455Z,99.90
2022-12-17T04:29:51.034Z,99.90
2022-12-17T04:32:36.133Z,99.90
2022-12-17T04:35:21.556Z,99.90
2022-12-17T04:38:07.250Z,99.90
2022-12-17T04:40:52.801Z,99.90
2022-12-17T04:43:38.757Z,99.90
2022-12-17T04:46:24.270Z,99.90
2022-12-17T04:49:09.834Z,99.90
2022-12-17T04:51:59.793Z,99.90
2022-12-17T04:54:44.968Z,99.90
2022-12-17T04:57:30.362Z,99.90
2022-12-17T05:00:15.733Z,99.90
2022-12-17T05:03:01.107Z,99.90
2022-12-17T05:05:46.548Z,99.90
2022-12-17T05:08:34.564Z,99.90
2022-12-17T05:11:23.205Z,99.90
2022-12-17T05:14:08.525Z,99.90
2022-12-17T05:16:54.074Z,99.90
2022-12-17T05:19:39.629Z,99.90
2022-12-17T05:22:25.137Z,99.90
2022-12-17T05:25:10.812Z,99.90
2022-12-17T05:27:56.315Z,99.90
2022-12-17T05:30:41.859Z,99.90
2022-12-17T05:33:27.363Z,99.90
2022-12-17T05:36:12.429Z,99.90
2022-12-17T05:38:57.877Z,99.90
2022-12-17T05:41:43.060Z,99.90
2022-12-17T05:44:28.349Z,99.90
2022-12-17T05:47:13.812Z,99.90
2022-12-17T05:49:59.114Z,99.90
2022-12-17T05:52:44.297Z,99.90
2022-12-17T05:55:29.511Z,99.90
2022-12-17T05:58:25.140Z,99.90
2022-12-17T06:01:14.730Z,99.90
2022-12-17T06:04:00.008Z,99.90
2022-12-17T06:06:50.005Z,99.90
2022-12-17T06:09:35.209Z,99.90
2022-12-17T06:12:20.521Z,99.90
2022-12-17T06:15:05.895Z,99.90
2022-12-17T06:17:51.074Z,99.90
2022-12-17T06:20:36.419Z,99.90
2022-12-17T06:23:22.903Z,99.90
2022-12-17T06:26:08.190Z,99.90
2022-12-17T06:28:53.443Z,99.90
2022-12-17T06:31:38.729Z,99.90
2022-12-17T06:34:24.259Z,99.90
2022-12-17T06:37:09.518Z,99.90
2022-12-17T06:39:59.490Z,99.90
2022-12-17T06:42:44.641Z,99.90
2022-12-17T06:45:29.823Z,99.90
2022-12-17T06:48:26.577Z,99.90
2022-12-17T06:51:12.141Z,99.90
2022-12-17T06:53:57.703Z,99.90
2022-12-17T06:56:43.297Z,99.90
2022-12-17T06:59:28.363Z,99.90
2022-12-17T07:02:13.987Z,99.90
2022-12-17T07:04:59.460Z,99.90
2022-12-17T07:07:44.817Z,99.90
2022-12-17T07:10:30.342Z,99.90
2022-12-17T07:13:22.060Z,99.90
2022-12-17T07:16:07.207Z,99.90
2022-12-17T07:19:09.664Z,99.90
2022-12-17T07:21:54.932Z,99.90
2022-12-17T07:24:40.302Z,99.90
2022-12-17T07:27:25.392Z,99.90
2022-12-17T07:30:10.700Z,99.90
2022-12-17T07:32:56.433Z,99.90
2022-12-17T07:35:41.863Z,99.90
2022-12-17T07:38:27.477Z,99.90
2022-12-17T07:41:12.579Z,99.90
2022-12-17T07:43:57.923Z,99.90
2022-12-17T07:46:43.180Z,99.90
2022-12-17T07:49:28.327Z,99.90
2022-12-17T07:52:13.496Z,99.90
2022-12-17T07:54:58.635Z,99.90
2022-12-17T07:57:44.362Z,99.90
2022-12-17T08:00:30.087Z,99.90
2022-12-17T08:03:16.133Z,99.90
2022-12-17T08:06:01.642Z,99.90
2022-12-17T08:08:47.149Z,99.90
2022-12-17T08:11:32.560Z,99.90
2022-12-17T08:14:17.935Z,99.90
2022-12-17T08:17:03.516Z,99.90
2022-12-17T08:19:49.198Z,99.90
2022-12-17T08:22:34.375Z,99.90
2022-12-17T08:25:19.699Z,99.90
2022-12-17T08:28:11.250Z,99.90
2022-12-17T08:31:06.990Z,99.90
2022-12-17T08:33:53.113Z,99.90
2022-12-17T08:36:38.445Z,99.90
2022-12-17T08:39:23.676Z,99.90
2022-12-17T08:42:09.200Z,99.90
2022-12-17T08:44:54.377Z,99.90
2022-12-17T08:47:39.665Z,99.90
2022-12-17T08:50:25.371Z,99.90
2022-12-17T08:53:17.389Z,99.90
2022-12-17T08:56:02.914Z,99.90
2022-12-17T08:58:48.276Z,99.90
2022-12-17T09:01:33.584Z,99.90
2022-12-17T09:04:19.469Z,99.90
2022-12-17T09:07:04.920Z,99.90
2022-12-17T09:09:50.187Z,99.90
2022-12-17T09:12:58.575Z,99.90
2022-12-17T09:15:46.752Z,99.90
2022-12-17T09:18:31.823Z,99.90
2022-12-17T09:21:17.058Z,99.90
2022-12-17T09:24:02.505Z,99.90
2022-12-17T09:26:48.099Z,99.90
2022-12-17T09:29:33.385Z,99.90
2022-12-17T09:32:32.317Z,99.90
2022-12-17T09:35:17.477Z,99.90
2022-12-17T09:38:02.684Z,99.90
2022-12-17T09:40:48.584Z,99.90
2022-12-17T09:43:37.144Z,99.90
2022-12-17T09:46:31.827Z,99.90
2022-12-17T09:49:22.202Z,99.90
2022-12-17T09:52:07.594Z,99.90
2022-12-17T09:54:57.711Z,95.50
2022-12-17T09:57:51.689Z,91.30
2022-12-17T10:00:39.148Z,89.70
2022-12-17T10:03:32.655Z,81.70
2022-12-17T10:06:22.773Z,75.80
2022-12-17T10:09:11.506Z,72.50
2022-12-17T10:11:56.908Z,70.30
2022-12-17T10:14:44.262Z,68.00
2022-12-17T10:17:34.356Z,66.10
2022-12-17T10:20:19.554Z,64.20
2022-12-17T10:23:06.205Z,66.30
2022-12-17T10:25:51.807Z,68.30
2022-12-17T10:28:38.539Z,73.20
2022-12-17T10:31:34.161Z,76.30
2022-12-17T10:34:19.610Z,79.00
2022-12-17T10:37:05.922Z,82.50
2022-12-17T10:39:51.679Z,87.70
2022-12-17T10:42:40.854Z,90.30
2022-12-17T10:45:43.226Z,91.90
2022-12-17T10:48:42.364Z,93.90
2022-12-17T10:51:43.642Z,95.50
2022-12-17T10:54:38.514Z,97.50
2022-12-17T10:57:24.551Z,99.70
2022-12-17T11:00:09.857Z,99.90
2022-12-17T11:02:55.753Z,99.90
2022-12-17T11:05:46.014Z,99.90
2022-12-17T11:08:35.195Z,99.90
2022-12-17T11:11:27.275Z,99.90
2022-12-17T11:14:13.369Z,99.90
2022-12-17T11:17:00.394Z,99.90
2022-12-17T11:20:04.575Z,99.90
2022-12-17T11:22:53.688Z,99.90
2022-12-17T11:25:38.855Z,99.90
2022-12-17T11:28:30.163Z,99.90
2022-12-17T11:31:20.694Z,99.90
2022-12-17T11:34:14.267Z,99.90
2022-12-17T11:37:06.657Z,99.90
2022-12-17T11:39:57.683Z,99.90
2022-12-17T11:42:54.838Z,99.90
2022-12-17T11:45:57.825Z,99.90
2022-12-17T11:48:56.753Z,99.90
2022-12-17T11:51:47.833Z,99.90
2022-12-17T11:54:42.630Z,99.90
2022-12-17T11:57:45.907Z,99.90
2022-12-17T12:00:34.434Z,99.90
2022-12-17T12:03:38.878Z,99.90
2022-12-17T12:06:46.524Z,99.90
2022-12-17T12:09:34.743Z,99.90
2022-12-17T12:12:37.336Z,99.90
2022-12-17T12:15:22.533Z,99.90
2022-12-17T12:18:20.655Z,99.90
2022-12-17T12:21:06.151Z,99.90
2022-12-17T12:23:54.762Z,99.90
2022-12-17T12:26:42.443Z,99.90
2022-12-17T12:29:51.870Z,99.90
2022-12-17T12:32:57.880Z,99.90
2022-12-17T12:35:44.857Z,99.90
2022-12-17T12:38:39.491Z,99.90
2022-12-17T12:41:46.734Z,99.90
2022-12-17T12:44:41.056Z,99.90
2022-12-17T12:47:31.879Z,99.90
2022-12-17T12:50:29.471Z,99.90
2022-12-17T12:53:23.480Z,99.90
2022-12-17T12:56:08.599Z,99.90
2022-12-17T12:58:54.021Z,99.90
2022-12-17T13:01:50.326Z,99.90
2022-12-17T13:04:55.924Z,99.90
2022-12-17T13:07:24.578Z,99.90
2022-12-17T13:09:53.031Z,99.90
2022-12-17T13:12:25.079Z,99.90
2022-12-17T13:14:54.626Z,99.90
2022-12-17T13:17:25.438Z,99.90
2022-12-17T13:19:57.879Z,99.90
2022-12-17T13:22:28.314Z,99.90
2022-12-17T13:24:57.016Z,99.90
2022-12-17T13:27:35.862Z,99.90
2022-12-17T13:30:17.897Z,99.90
2022-12-17T13:32:48.763Z,99.90
2022-12-17T13:35:24.360Z,99.90
2022-12-17T13:38:20.694Z,99.90
2022-12-17T13:40:59.482Z,99.90
2022-12-17T13:43:30.005Z,99.90
2022-12-17T13:45:56.892Z,99.90
2022-12-17T13:48:26.023Z,99.90
2022-12-17T13:50:57.231Z,99.90
2022-12-17T13:53:23.932Z,99.90
2022-12-17T13:55:52.024Z,99.90
2022-12-17T13:58:32.482Z,99.90
2022-12-17T14:01:11.213Z,99.90
2022-12-17T14:06:28.205Z,99.90
2022-12-17T14:08:56.230Z,99.90
2022-12-17T14:11:41.855Z,99.90
2022-12-17T14:14:12.187Z,99.90
2022-12-17T14:16:40.484Z,99.90
2022-12-17T14:19:09.430Z,99.90
2022-12-17T14:21:37.239Z,99.90
2022-12-17T14:24:04.773Z,99.90
2022-12-17T14:26:31.440Z,99.90
2022-12-17T14:28:58.138Z,99.90
2022-12-17T14:31:28.819Z,99.90
2022-12-17T14:34:22.632Z,99.90
2022-12-17T14:36:53.925Z,99.90
2022-12-17T14:39:23.987Z,99.90
2022-12-17T14:42:09.517Z,99.90
2022-12-17T14:44:38.297Z,99.90
2022-12-17T14:47:14.075Z,99.90
2022-12-17T14:49:55.260Z,99.90
2022-12-17T14:52:28.058Z,99.90
2022-12-17T14:54:54.806Z,99.90
2022-12-17T14:57:22.439Z,99.90
2022-12-17T14:59:51.112Z,99.90
2022-12-17T15:02:23.684Z,99.90
2022-12-17T15:04:53.151Z,99.90
2022-12-17T15:07:23.663Z,99.90
2022-12-17T15:09:53.601Z,99.90
2022-12-17T15:12:24.224Z,99.90
2022-12-17T15:14:51.019Z,99.90
2022-12-17T15:17:17.827Z,99.90
2022-12-17T15:19:44.653Z,99.90
2022-12-17T15:22:16.562Z,99.90
2022-12-17T15:24:46.445Z,99.90
2022-12-17T15:27:16.721Z,99.90
2022-12-17T15:29:45.030Z,99.90
2022-12-17T15:32:19.259Z,99.90
2022-12-17T15:34:46.194Z,99.90
2022-12-17T15:37:13.486Z,99.90
2022-12-17T15:39:40.147Z,99.90
2022-12-17T15:42:25.663Z,99.90
2022-12-17T15:44:52.535Z,99.90
2022-12-17T15:47:19.520Z,99.90
2022-12-17T15:49:46.195Z,99.90
2022-12-17T15:52:15.067Z,99.90
2022-12-17T15:54:42.187Z,99.90
2022-12-17T15:57:11.852Z,99.90
2022-12-17T15:59:42.153Z,99.90
2022-12-17T16:02:10.210Z,99.90
2022-12-17T16:04:37.658Z,99.90
2022-12-17T16:07:04.788Z,99.90
2022-12-17T16:09:31.614Z,99.90
2022-12-17T16:11:58.254Z,99.90
2022-12-17T16:14:25.032Z,99.90
2022-12-17T16:16:52.133Z,99.90
2022-12-17T16:19:18.990Z,99.90
2022-12-17T16:21:47.081Z,99.90
2022-12-17T16:24:14.097Z,99.90
2022-12-17T16:26:40.775Z,99.90
2022-12-17T16:29:07.524Z,99.90
2022-12-17T16:31:34.304Z,99.90
2022-12-17T16:34:01.145Z,99.90
2022-12-17T16:36:27.826Z,99.90
2022-12-17T16:38:55.028Z,99.90
2022-12-17T16:41:21.978Z,99.90
2022-12-17T16:43:48.809Z,99.90
2022-12-17T16:46:25.182Z,99.90
2022-12-17T16:48:52.441Z,99.90
2022-12-17T16:51:28.157Z,99.90
2022-12-17T16:53:55.925Z,99.90
2022-12-17T16:56:23.790Z,99.90
2022-12-17T16:58:50.510Z,99.90
2022-12-17T17:01:21.626Z,99.90
2022-12-17T17:03:48.532Z,99.90
2022-12-17T17:06:16.263Z,99.90
2022-12-17T17:08:43.093Z,99.90
2022-12-17T17:11:14.548Z,99.90
2022-12-17T17:13:41.500Z,99.90
2022-12-17T17:16:09.231Z,99.90
2022-12-17T17:18:36.904Z,99.90
2022-12-17T17:21:12.357Z,99.90
2022-12-17T17:23:39.256Z,99.90
2022-12-17T17:26:06.143Z,99.90
2022-12-17T17:28:32.824Z,99.90
2022-12-17T17:31:00.705Z,99.90
2022-12-17T17:33:30.949Z,99.90
2022-12-17T17:36:08.655Z,99.90
2022-12-17T17:38:36.398Z,99.90
2022-12-17T17:41:04.532Z,99.90
2022-12-17T17:43:31.670Z,99.90
2022-12-17T17:46:05.816Z,99.90
2022-12-17T17:48:36.474Z,99.90
2022-12-17T17:51:05.932Z,99.90
2022-12-17T17:53:32.720Z,99.90
2022-12-17T17:56:03.722Z,99.90
2022-12-17T17:58:30.484Z,99.90
2022-12-17T18:00:57.266Z,99.90
2022-12-17T18:03:24.085Z,99.90
2022-12-17T18:05:50.966Z,99.90
2022-12-17T18:08:17.686Z,99.90
2022-12-17T18:10:54.205Z,99.90
2022-12-17T18:13:39.554Z,99.90
2022-12-17T18:16:06.530Z,99.90
2022-12-17T18:18:33.263Z,99.90
2022-12-17T18:21:07.533Z,99.90
2022-12-17T18:23:34.633Z,99.90
2022-12-17T18:26:06.003Z,99.90
2022-12-17T18:28:33.026Z,99.90
2022-12-17T18:31:05.254Z,99.90
2022-12-17T18:33:32.054Z,99.90
2022-12-17T18:35:58.818Z,99.90
2022-12-17T18:38:25.568Z,99.90
2022-12-17T18:40:52.251Z,99.90
2022-12-17T18:43:25.380Z,99.90
2022-12-17T18:45:52.415Z,99.90
2022-12-17T18:48:20.214Z,99.90
2022-12-17T18:50:46.927Z,99.90
2022-12-17T18:53:13.685Z,99.90
2022-12-17T18:55:40.662Z,99.90
2022-12-17T18:58:09.060Z,99.90
2022-12-17T19:00:37.286Z,99.90
2022-12-17T19:03:05.570Z,99.90
2022-12-17T19:05:32.494Z,99.90
2022-12-17T19:07:59.189Z,99.90
2022-12-17T19:10:25.961Z,99.90
2022-12-17T19:12:52.856Z,99.90
2022-12-17T19:15:19.519Z,99.90
2022-12-17T19:17:50.839Z,99.90
2022-12-17T19:20:17.875Z,99.90
2022-12-17T19:22:44.598Z,99.90
2022-12-17T19:25:11.398Z,99.90
2022-12-17T19:27:38.053Z,99.90
2022-12-17T19:30:05.220Z,99.90
2022-12-17T19:32:32.162Z,99.90
2022-12-17T19:34:58.871Z,99.90
2022-12-17T19:37:25.602Z,99.90
2022-12-17T19:39:52.257Z,99.90
2022-12-17T19:42:25.256Z,99.90
2022-12-17T19:44:52.759Z,99.90
2022-12-17T19:47:19.575Z,99.90
2022-12-17T19:49:46.953Z,99.90
2022-12-17T19:52:13.848Z,99.90
2022-12-17T19:54:40.553Z,99.90
2022-12-17T19:57:07.194Z,99.90
2022-12-17T19:59:34.002Z,99.90
2022-12-17T20:02:03.665Z,99.90
2022-12-17T20:04:30.912Z,99.90
2022-12-17T20:06:58.786Z,99.90
2022-12-17T20:09:25.462Z,99.90
2022-12-17T20:11:52.208Z,99.90
2022-12-17T20:14:26.609Z,99.90
2022-12-17T20:16:57.710Z,99.90
2022-12-17T20:19:26.042Z,99.90
2022-12-17T20:21:53.206Z,99.90
2022-12-17T20:24:19.936Z,99.90
2022-12-17T20:26:48.501Z,99.90
2022-12-17T20:29:15.303Z,99.90
2022-12-17T20:31:46.738Z,99.90
2022-12-17T20:34:16.719Z,99.90
2022-12-17T20:36:43.764Z,99.90
2022-12-17T20:39:11.671Z,99.90
2022-12-17T20:41:40.204Z,99.90
2022-12-17T20:44:08.066Z,99.90
2022-12-17T20:46:36.698Z,99.90
2022-12-17T20:49:04.360Z,99.90
2022-12-17T20:51:31.188Z,99.90
2022-12-17T20:53:59.453Z,99.90
2022-12-17T20:56:28.112Z,99.90
2022-12-17T20:58:55.956Z,99.90
2022-12-17T21:01:23.789Z,99.90
2022-12-17T21:03:51.745Z,99.90
2022-12-17T21:06:20.186Z,99.90
2022-12-17T21:08:50.932Z,99.90
2022-12-17T21:11:18.817Z,99.90
2022-12-17T21:13:46.019Z,99.90
2022-12-17T21:16:14.070Z,99.90
2022-12-17T21:18:41.549Z,99.90
2022-12-17T21:21:12.161Z,99.90
2022-12-17T21:23:38.945Z,99.90
2022-12-17T21:26:11.357Z,99.90
2022-12-17T21:28:39.029Z,99.90
2022-12-17T21:31:06.645Z,99.90
2022-12-17T21:33:33.625Z,99.90
2022-12-17T21:36:01.708Z,99.90
2022-12-17T21:38:34.476Z,99.90
2022-12-17T21:41:09.303Z,99.90
2022-12-17T21:43:37.533Z,99.90
2022-12-17T21:46:04.936Z,99.90
2022-12-17T21:48:35.490Z,99.90
2022-12-17T21:51:07.444Z,99.90
2022-12-17T21:53:34.935Z,99.90
2022-12-17T21:56:02.529Z,99.90
2022-12-17T21:58:29.951Z,99.90
2022-12-17T22:00:57.406Z,99.90
2022-12-17T22:03:24.406Z,99.90
2022-12-17T22:05:51.205Z,99.90
2022-12-17T22:08:18.082Z,99.90
2022-12-17T22:10:49.345Z,99.90
2022-12-17T22:13:37.357Z,99.90
2022-12-17T22:16:06.029Z,99.90
2022-12-17T22:18:32.851Z,99.90
2022-12-17T22:21:00.113Z,99.90
2022-12-17T22:23:26.802Z,99.90
2022-12-17T22:25:53.812Z,99.90
2022-12-17T22:28:20.467Z,99.90
2022-12-17T22:31:06.082Z,99.90
2022-12-17T22:34:03.001Z,99.90
2022-12-17T22:37:49.084Z,99.90
2022-12-17T22:44:02.731Z,99.90
2022-12-17T22:44:42.956Z,99.90
2022-12-17T22:45:08.537Z,99.90
2022-12-17T22:47:36.802Z,99.90
2022-12-17T22:50:03.679Z,99.90
2022-12-17T22:52:31.106Z,99.90
2022-12-17T22:54:58.068Z,99.90
2022-12-17T22:57:37.599Z,99.90
2022-12-17T23:00:25.239Z,99.90
2022-12-17T23:02:53.425Z,99.90
2022-12-17T23:05:23.942Z,99.90
2022-12-17T23:07:51.310Z,99.90
2022-12-17T23:10:18.814Z,99.90
2022-12-17T23:12:51.487Z,99.90
2022-12-17T23:15:26.820Z,99.90
2022-12-17T23:17:54.327Z,99.90
2022-12-17T23:20:21.681Z,99.90
2022-12-17T23:22:48.480Z,99.90
2022-12-17T23:25:15.599Z,99.90
2022-12-17T23:27:42.574Z,99.90
2022-12-17T23:30:09.613Z,99.90
2022-12-17T23:32:36.909Z,99.90
2022-12-17T23:35:03.794Z,99.90
2022-12-17T23:37:33.836Z,99.90
2022-12-17T23:40:04.425Z,99.90
2022-12-17T23:42:31.138Z,99.90
2022-12-17T23:44:57.789Z,99.90
2022-12-17T23:47:24.466Z,99.90
2022-12-17T23:49:51.189Z,99.90
2022-12-17T23:52:17.847Z,99.90
2022-12-17T23:54:44.504Z,99.90
2022-12-17T23:57:11.246Z,99.90
2022-12-17T23:59:37.961Z,99.90
